WMKL

Details ICAO WMKL (LGK)
Name Langkawi Intl
Region Malaysia (Peninsular Malaysia)
Timezone Asia/Kuala_Lumpur (UTC+8.0)
Plans Departing 70
Arriving 95
Stats Elevation 29 ft / 9 m (AMSL)
Location 6.329726° 99.728665°
Runways 1
Magnetic Variation 0.282° W
Sunrise 2017-12-11 23:23:18 UTC / 2017-12-12 07:23:18 Local
Sunset 2017-12-12 11:08:56 UTC / 2017-12-12 19:08:56 Local
Advertisement - Login to hide

Runways

ID Width Length Bearing (true) Bearing (mag) Surface Threshold Offset Overrun Length
03 148 ft / 45 m 12,543 ft / 3,823 m 34.19° 34.47° Asphalt 2,000 ft / 610 m 193 ft / 59 m
21 148 ft / 45 m 12,543 ft / 3,823 m 214.20° 214.48° Asphalt 0 ft / 0 m 175 ft / 53 m

Approach Navaids

Runway Type Ident Frequency Range Bearing (true) Bearing (mag) Slope Elevation
03 Localiser ILK 110.70 MHz 18 nm / 33 km 35.68° 35.96° - 29 ft / 9 m (AMSL)
03 Glidescope ILK 110.70 MHz 10 nm / 19 km 34.19° 34.48° 3.00° 29 ft / 9 m (AMSL)
03 DME ILK 110.70 MHz 18 nm / 33 km - - - 29 ft / 9 m (AMSL)

Map

Weather


0- 5 10 15 20 25 30 35+ Temperature / ° C

Clouds and Precipitation
Forecast for 2017-12-12 06:00 UTC. Updated 2 hours ago

Ground ~20,000 ft ~40,000 ft Winds

METAR

WMKL 120300Z 03004KT 330V100 9999 FEW022 BKN270 28/22 Q1014

TAF

Not found

Frequencies

Recorded 128.20 MHz ATIS
Tower 118.50 MHz TWR
Ground 121.80 MHz GND
Approach 119.40 MHz APP
Warning: Do not use this data for real-world aviation or navigation. No guarantee of current accuracy is given.